sensor_id;sensor_type;location;lat;lon;timestamp;P1;durP1;ratioP1;P2;durP2;ratioP2
39322;SDS011;25036;53.638;10.134;2023-11-21T00:00:33;10.18;;;7.30;;
39322;SDS011;25036;53.638;10.134;2023-11-21T00:01:34;8.05;;;7.03;;
39322;SDS011;25036;53.638;10.134;2023-11-21T00:02:34;9.27;;;7.70;;
39322;SDS011;25036;53.638;10.134;2023-11-21T00:03:34;12.10;;;8.77;;
39322;SDS011;25036;53.638;10.134;2023-11-21T00:04:34;10.50;;;8.50;;
39322;SDS011;25036;53.638;10.134;2023-11-21T00:05:34;10.17;;;7.50;;
39322;SDS011;25036;53.638;10.134;2023-11-21T00:06:35;9.85;;;8.18;;
39322;SDS011;25036;53.638;10.134;2023-11-21T00:07:38;9.63;;;8.17;;
39322;SDS011;25036;53.638;10.134;2023-11-21T00:08:38;10.68;;;8.60;;
39322;SDS011;25036;53.638;10.134;2023-11-21T00:09:38;9.97;;;7.93;;
39322;SDS011;25036;53.638;10.134;2023-11-21T00:10:39;10.20;;;8.77;;
39322;SDS011;25036;53.638;10.134;2023-11-21T00:11:39;11.47;;;8.90;;
39322;SDS011;25036;53.638;10.134;2023-11-21T00:12:39;11.10;;;8.67;;
39322;SDS011;25036;53.638;10.134;2023-11-21T00:13:41;11.77;;;8.77;;
39322;SDS011;25036;53.638;10.134;2023-11-21T00:14:41;9.77;;;8.17;;
39322;SDS011;25036;53.638;10.134;2023-11-21T00:15:42;9.60;;;6.73;;
39322;SDS011;25036;53.638;10.134;2023-11-21T00:16:42;8.03;;;6.33;;
39322;SDS011;25036;53.638;10.134;2023-11-21T00:17:42;11.03;;;6.20;;
39322;SDS011;25036;53.638;10.134;2023-11-21T00:18:42;7.82;;;6.13;;
39322;SDS011;25036;53.638;10.134;2023-11-21T00:19:42;8.73;;;5.60;;
39322;SDS011;25036;53.638;10.134;2023-11-21T00:20:42;6.17;;;5.23;;
39322;SDS011;25036;53.638;10.134;2023-11-21T00:21:43;5.40;;;4.90;;
39322;SDS011;25036;53.638;10.134;2023-11-21T00:22:44;7.25;;;5.00;;
39322;SDS011;25036;53.638;10.134;2023-11-21T00:23:44;6.13;;;4.90;;
39322;SDS011;25036;53.638;10.134;2023-11-21T00:24:45;5.53;;;4.67;;
39322;SDS011;25036;53.638;10.134;2023-11-21T00:25:45;6.25;;;4.85;;
39322;SDS011;25036;53.638;10.134;2023-11-21T00:26:45;5.33;;;4.20;;
39322;SDS011;25036;53.638;10.134;2023-11-21T00:27:48;6.05;;;4.97;;
39322;SDS011;25036;53.638;10.134;2023-11-21T00:28:48;6.40;;;5.03;;
39322;SDS011;25036;53.638;10.134;2023-11-21T00:29:48;8.07;;;5.27;;
39322;SDS011;25036;53.638;10.134;2023-11-21T00:30:48;7.73;;;4.73;;
39322;SDS011;25036;53.638;10.134;2023-11-21T00:31:49;6.50;;;5.07;;
39322;SDS011;25036;53.638;10.134;2023-11-21T00:32:49;6.60;;;4.60;;
39322;SDS011;25036;53.638;10.134;2023-11-21T00:33:49;7.03;;;5.23;;
39322;SDS011;25036;53.638;10.134;2023-11-21T00:34:50;9.10;;;5.88;;
39322;SDS011;25036;53.638;10.134;2023-11-21T00:35:50;10.07;;;5.90;;
39322;SDS011;25036;53.638;10.134;2023-11-21T00:36:50;8.68;;;6.78;;
39322;SDS011;25036;53.638;10.134;2023-11-21T00:37:50;9.13;;;6.43;;
39322;SDS011;25036;53.638;10.134;2023-11-21T00:38:50;9.70;;;6.27;;
39322;SDS011;25036;53.638;10.134;2023-11-21T00:39:50;8.50;;;6.63;;
39322;SDS011;25036;53.638;10.134;2023-11-21T00:40:50;8.97;;;6.50;;
39322;SDS011;25036;53.638;10.134;2023-11-21T00:41:51;13.60;;;7.28;;
39322;SDS011;25036;53.638;10.134;2023-11-21T00:42:52;7.85;;;6.75;;
39322;SDS011;25036;53.638;10.134;2023-11-21T00:43:52;8.43;;;6.40;;
39322;SDS011;25036;53.638;10.134;2023-11-21T00:44:52;10.68;;;6.88;;
39322;SDS011;25036;53.638;10.134;2023-11-21T00:45:52;8.37;;;5.87;;
39322;SDS011;25036;53.638;10.134;2023-11-21T00:46:52;9.93;;;6.30;;
39322;SDS011;25036;53.638;10.134;2023-11-21T00:47:52;7.70;;;6.43;;
39322;SDS011;25036;53.638;10.134;2023-11-21T00:48:52;8.27;;;6.50;;
39322;SDS011;25036;53.638;10.134;2023-11-21T00:49:54;9.40;;;6.75;;
39322;SDS011;25036;53.638;10.134;2023-11-21T00:50:54;8.82;;;6.35;;
39322;SDS011;25036;53.638;10.134;2023-11-21T00:51:56;14.82;;;6.53;;
39322;SDS011;25036;53.638;10.134;2023-11-21T00:52:57;8.57;;;6.18;;
39322;SDS011;25036;53.638;10.134;2023-11-21T00:53:58;8.30;;;6.57;;
39322;SDS011;25036;53.638;10.134;2023-11-21T00:54:58;8.40;;;7.00;;
39322;SDS011;25036;53.638;10.134;2023-11-21T00:56:02;11.10;;;7.78;;
39322;SDS011;25036;53.638;10.134;2023-11-21T00:57:02;8.10;;;6.90;;
39322;SDS011;25036;53.638;10.134;2023-11-21T00:58:03;8.85;;;6.85;;
39322;SDS011;25036;53.638;10.134;2023-11-21T00:59:04;8.30;;;6.72;;
39322;SDS011;25036;53.638;10.134;2023-11-21T01:00:05;11.35;;;7.05;;
39322;SDS011;25036;53.638;10.134;2023-11-21T01:01:17;9.68;;;7.22;;
39322;SDS011;25036;53.638;10.134;2023-11-21T01:02:17;8.70;;;7.20;;
39322;SDS011;25036;53.638;10.134;2023-11-21T01:03:17;9.83;;;6.97;;
39322;SDS011;25036;53.638;10.134;2023-11-21T01:04:17;10.70;;;6.80;;
39322;SDS011;25036;53.638;10.134;2023-11-21T01:05:17;9.30;;;7.10;;
39322;SDS011;25036;53.638;10.134;2023-11-21T01:06:18;8.27;;;6.80;;
39322;SDS011;25036;53.638;10.134;2023-11-21T01:07:18;10.32;;;7.80;;
39322;SDS011;25036;53.638;10.134;2023-11-21T01:08:20;7.90;;;6.78;;
39322;SDS011;25036;53.638;10.134;2023-11-21T01:09:21;7.40;;;5.90;;
39322;SDS011;25036;53.638;10.134;2023-11-21T01:10:21;8.40;;;6.55;;
39322;SDS011;25036;53.638;10.134;2023-11-21T01:11:21;12.13;;;6.63;;
39322;SDS011;25036;53.638;10.134;2023-11-21T01:12:22;8.73;;;7.10;;
39322;SDS011;25036;53.638;10.134;2023-11-21T01:13:24;11.73;;;7.55;;
39322;SDS011;25036;53.638;10.134;2023-11-21T01:14:29;8.50;;;6.93;;
39322;SDS011;25036;53.638;10.134;2023-11-21T01:15:29;8.30;;;7.10;;
39322;SDS011;25036;53.638;10.134;2023-11-21T01:16:29;8.68;;;7.10;;
39322;SDS011;25036;53.638;10.134;2023-11-21T01:17:29;10.13;;;7.18;;
39322;SDS011;25036;53.638;10.134;2023-11-21T01:18:30;8.97;;;7.40;;
39322;SDS011;25036;53.638;10.134;2023-11-21T01:19:30;9.27;;;7.30;;
39322;SDS011;25036;53.638;10.134;2023-11-21T01:20:30;11.53;;;7.23;;
39322;SDS011;25036;53.638;10.134;2023-11-21T01:21:30;10.23;;;7.10;;
39322;SDS011;25036;53.638;10.134;2023-11-21T01:22:30;8.52;;;7.00;;
39322;SDS011;25036;53.638;10.134;2023-11-21T01:23:30;8.57;;;6.37;;
39322;SDS011;25036;53.638;10.134;2023-11-21T01:24:31;10.57;;;6.93;;
39322;SDS011;25036;53.638;10.134;2023-11-21T01:25:31;9.27;;;6.35;;
39322;SDS011;25036;53.638;10.134;2023-11-21T01:26:31;8.57;;;6.10;;
39322;SDS011;25036;53.638;10.134;2023-11-21T01:27:31;8.93;;;6.27;;
39322;SDS011;25036;53.638;10.134;2023-11-21T01:28:31;7.53;;;6.10;;
39322;SDS011;25036;53.638;10.134;2023-11-21T01:29:32;7.85;;;5.95;;
39322;SDS011;25036;53.638;10.134;2023-11-21T01:30:32;7.25;;;5.53;;
39322;SDS011;25036;53.638;10.134;2023-11-21T01:31:32;6.05;;;5.45;;
39322;SDS011;25036;53.638;10.134;2023-11-21T01:32:32;7.53;;;5.40;;
39322;SDS011;25036;53.638;10.134;2023-11-21T01:33:33;8.07;;;4.90;;
39322;SDS011;25036;53.638;10.134;2023-11-21T01:34:33;6.28;;;5.40;;
39322;SDS011;25036;53.638;10.134;2023-11-21T01:35:33;10.75;;;5.25;;
39322;SDS011;25036;53.638;10.134;2023-11-21T01:36:34;6.68;;;5.47;;
39322;SDS011;25036;53.638;10.134;2023-11-21T01:37:35;6.18;;;4.20;;
39322;SDS011;25036;53.638;10.134;2023-11-21T01:38:35;5.20;;;4.63;;
39322;SDS011;25036;53.638;10.134;2023-11-21T01:39:35;6.00;;;4.63;;
39322;SDS011;25036;53.638;10.134;2023-11-21T01:40:37;5.32;;;4.72;;
39322;SDS011;25036;53.638;10.134;2023-11-21T01:41:37;5.70;;;4.50;;
39322;SDS011;25036;53.638;10.134;2023-11-21T01:42:37;5.07;;;4.10;;
39322;SDS011;25036;53.638;10.134;2023-11-21T01:43:37;4.97;;;4.50;;
39322;SDS011;25036;53.638;10.134;2023-11-21T01:44:38;5.80;;;4.53;;
39322;SDS011;25036;53.638;10.134;2023-11-21T01:45:38;5.13;;;4.60;;
39322;SDS011;25036;53.638;10.134;2023-11-21T01:46:39;5.85;;;4.35;;
39322;SDS011;25036;53.638;10.134;2023-11-21T01:47:39;6.22;;;4.80;;
39322;SDS011;25036;53.638;10.134;2023-11-21T01:48:41;5.88;;;4.03;;
39322;SDS011;25036;53.638;10.134;2023-11-21T01:49:43;4.53;;;4.13;;
39322;SDS011;25036;53.638;10.134;2023-11-21T01:50:43;4.32;;;3.90;;
39322;SDS011;25036;53.638;10.134;2023-11-21T01:51:45;5.53;;;3.85;;
39322;SDS011;25036;53.638;10.134;2023-11-21T01:52:46;6.63;;;4.30;;
39322;SDS011;25036;53.638;10.134;2023-11-21T01:53:48;5.18;;;4.03;;
39322;SDS011;25036;53.638;10.134;2023-11-21T01:54:48;5.18;;;4.00;;
39322;SDS011;25036;53.638;10.134;2023-11-21T01:55:48;6.53;;;3.83;;
39322;SDS011;25036;53.638;10.134;2023-11-21T01:56:49;4.68;;;3.63;;
39322;SDS011;25036;53.638;10.134;2023-11-21T01:57:49;4.25;;;3.80;;
39322;SDS011;25036;53.638;10.134;2023-11-21T01:58:49;5.45;;;3.88;;
39322;SDS011;25036;53.638;10.134;2023-11-21T01:59:51;6.55;;;3.85;;
39322;SDS011;25036;53.638;10.134;2023-11-21T02:00:52;4.18;;;3.78;;
39322;SDS011;25036;53.638;10.134;2023-11-21T02:01:54;4.07;;;3.65;;
39322;SDS011;25036;53.638;10.134;2023-11-21T02:02:56;5.25;;;4.35;;
39322;SDS011;25036;53.638;10.134;2023-11-21T02:03:56;5.40;;;3.75;;
39322;SDS011;25036;53.638;10.134;2023-11-21T02:04:56;6.87;;;4.00;;
39322;SDS011;25036;53.638;10.134;2023-11-21T02:05:56;5.37;;;3.67;;
39322;SDS011;25036;53.638;10.134;2023-11-21T02:06:57;5.27;;;3.87;;
39322;SDS011;25036;53.638;10.134;2023-11-21T02:07:57;4.70;;;3.72;;
39322;SDS011;25036;53.638;10.134;2023-11-21T02:08:57;4.60;;;3.20;;
39322;SDS011;25036;53.638;10.134;2023-11-21T02:09:57;10.88;;;4.35;;
39322;SDS011;25036;53.638;10.134;2023-11-21T02:10:58;5.88;;;3.65;;
39322;SDS011;25036;53.638;10.134;2023-11-21T02:11:59;4.17;;;3.63;;
39322;SDS011;25036;53.638;10.134;2023-11-21T02:12:59;3.95;;;3.45;;
39322;SDS011;25036;53.638;10.134;2023-11-21T02:14:02;5.68;;;3.50;;
39322;SDS011;25036;53.638;10.134;2023-11-21T02:15:03;5.53;;;3.20;;
39322;SDS011;25036;53.638;10.134;2023-11-21T02:16:10;4.45;;;3.60;;
39322;SDS011;25036;53.638;10.134;2023-11-21T02:17:12;4.10;;;3.30;;
39322;SDS011;25036;53.638;10.134;2023-11-21T02:18:13;5.03;;;3.13;;
39322;SDS011;25036;53.638;10.134;2023-11-21T02:19:18;4.03;;;3.25;;
39322;SDS011;25036;53.638;10.134;2023-11-21T02:20:20;4.15;;;3.20;;
39322;SDS011;25036;53.638;10.134;2023-11-21T02:21:20;4.53;;;3.45;;
39322;SDS011;25036;53.638;10.134;2023-11-21T02:22:20;3.40;;;3.10;;
39322;SDS011;25036;53.638;10.134;2023-11-21T02:23:22;5.28;;;3.47;;
39322;SDS011;25036;53.638;10.134;2023-11-21T02:24:23;4.22;;;3.30;;
39322;SDS011;25036;53.638;10.134;2023-11-21T02:25:29;5.13;;;3.30;;
39322;SDS011;25036;53.638;10.134;2023-11-21T02:26:29;4.35;;;3.50;;
39322;SDS011;25036;53.638;10.134;2023-11-21T02:27:29;3.93;;;3.30;;
39322;SDS011;25036;53.638;10.134;2023-11-21T02:28:30;3.95;;;3.22;;
39322;SDS011;25036;53.638;10.134;2023-11-21T02:29:30;5.17;;;3.13;;
39322;SDS011;25036;53.638;10.134;2023-11-21T02:30:30;6.70;;;3.53;;
39322;SDS011;25036;53.638;10.134;2023-11-21T02:31:33;3.45;;;3.15;;
39322;SDS011;25036;53.638;10.134;2023-11-21T02:32:33;4.60;;;3.40;;
39322;SDS011;25036;53.638;10.134;2023-11-21T02:33:34;5.70;;;3.72;;
39322;SDS011;25036;53.638;10.134;2023-11-21T02:34:34;4.05;;;3.38;;
39322;SDS011;25036;53.638;10.134;2023-11-21T02:35:34;4.68;;;3.17;;
39322;SDS011;25036;53.638;10.134;2023-11-21T02:36:35;5.82;;;3.58;;
39322;SDS011;25036;53.638;10.134;2023-11-21T02:37:35;3.47;;;3.17;;
39322;SDS011;25036;53.638;10.134;2023-11-21T02:38:35;6.03;;;3.60;;
39322;SDS011;25036;53.638;10.134;2023-11-21T02:39:35;4.13;;;3.40;;
39322;SDS011;25036;53.638;10.134;2023-11-21T02:40:35;5.30;;;3.53;;
39322;SDS011;25036;53.638;10.134;2023-11-21T02:41:36;8.93;;;3.67;;
39322;SDS011;25036;53.638;10.134;2023-11-21T02:42:36;9.43;;;3.50;;
39322;SDS011;25036;53.638;10.134;2023-11-21T02:43:37;4.60;;;3.30;;
39322;SDS011;25036;53.638;10.134;2023-11-21T02:44:38;4.28;;;3.50;;
39322;SDS011;25036;53.638;10.134;2023-11-21T02:45:38;6.23;;;4.07;;
39322;SDS011;25036;53.638;10.134;2023-11-21T02:46:38;4.77;;;3.60;;
39322;SDS011;25036;53.638;10.134;2023-11-21T02:47:40;3.90;;;3.42;;
39322;SDS011;25036;53.638;10.134;2023-11-21T02:48:40;4.90;;;3.60;;
39322;SDS011;25036;53.638;10.134;2023-11-21T02:49:40;3.77;;;3.30;;
39322;SDS011;25036;53.638;10.134;2023-11-21T02:50:40;4.45;;;4.03;;
39322;SDS011;25036;53.638;10.134;2023-11-21T02:51:41;5.63;;;3.92;;
39322;SDS011;25036;53.638;10.134;2023-11-21T02:52:41;5.18;;;3.88;;
39322;SDS011;25036;53.638;10.134;2023-11-21T02:53:41;4.90;;;3.67;;
39322;SDS011;25036;53.638;10.134;2023-11-21T02:54:42;5.63;;;4.10;;
39322;SDS011;25036;53.638;10.134;2023-11-21T02:55:42;4.07;;;3.58;;
39322;SDS011;25036;53.638;10.134;2023-11-21T02:56:42;5.60;;;4.10;;
39322;SDS011;25036;53.638;10.134;2023-11-21T02:57:42;5.20;;;4.10;;
39322;SDS011;25036;53.638;10.134;2023-11-21T02:58:43;4.37;;;3.97;;
39322;SDS011;25036;53.638;10.134;2023-11-21T02:59:46;5.68;;;3.85;;
39322;SDS011;25036;53.638;10.134;2023-11-21T03:00:46;5.93;;;3.73;;
39322;SDS011;25036;53.638;10.134;2023-11-21T03:01:46;4.63;;;3.88;;
39322;SDS011;25036;53.638;10.134;2023-11-21T03:02:46;5.60;;;4.30;;
39322;SDS011;25036;53.638;10.134;2023-11-21T03:03:47;4.30;;;3.88;;
39322;SDS011;25036;53.638;10.134;2023-11-21T03:04:51;4.38;;;3.97;;
39322;SDS011;25036;53.638;10.134;2023-11-21T03:05:51;4.40;;;4.00;;
39322;SDS011;25036;53.638;10.134;2023-11-21T03:06:51;4.90;;;4.40;;
39322;SDS011;25036;53.638;10.134;2023-11-21T03:07:51;4.00;;;3.60;;
39322;SDS011;25036;53.638;10.134;2023-11-21T03:08:51;4.57;;;3.60;;
39322;SDS011;25036;53.638;10.134;2023-11-21T03:09:51;4.90;;;3.83;;
39322;SDS011;25036;53.638;10.134;2023-11-21T03:10:51;4.53;;;4.00;;
39322;SDS011;25036;53.638;10.134;2023-11-21T03:11:52;4.30;;;3.90;;
39322;SDS011;25036;53.638;10.134;2023-11-21T03:12:52;5.55;;;4.22;;
39322;SDS011;25036;53.638;10.134;2023-11-21T03:13:53;4.80;;;3.90;;
39322;SDS011;25036;53.638;10.134;2023-11-21T03:14:53;5.13;;;4.07;;
39322;SDS011;25036;53.638;10.134;2023-11-21T03:15:54;5.80;;;3.60;;
39322;SDS011;25036;53.638;10.134;2023-11-21T03:16:54;5.15;;;4.00;;
39322;SDS011;25036;53.638;10.134;2023-11-21T03:17:54;6.40;;;4.00;;
39322;SDS011;25036;53.638;10.134;2023-11-21T03:18:54;4.90;;;4.23;;
39322;SDS011;25036;53.638;10.134;2023-11-21T03:19:54;4.83;;;3.90;;
39322;SDS011;25036;53.638;10.134;2023-11-21T03:20:54;4.60;;;4.07;;
39322;SDS011;25036;53.638;10.134;2023-11-21T03:21:55;4.33;;;3.90;;
39322;SDS011;25036;53.638;10.134;2023-11-21T03:22:55;4.33;;;3.77;;
39322;SDS011;25036;53.638;10.134;2023-11-21T03:23:55;5.77;;;3.97;;
39322;SDS011;25036;53.638;10.134;2023-11-21T03:24:55;4.40;;;3.92;;
39322;SDS011;25036;53.638;10.134;2023-11-21T03:25:55;4.77;;;4.03;;
39322;SDS011;25036;53.638;10.134;2023-11-21T03:26:55;4.27;;;3.90;;
39322;SDS011;25036;53.638;10.134;2023-11-21T03:27:56;7.30;;;4.22;;
39322;SDS011;25036;53.638;10.134;2023-11-21T03:28:56;4.97;;;3.97;;
39322;SDS011;25036;53.638;10.134;2023-11-21T03:29:57;5.17;;;3.80;;
39322;SDS011;25036;53.638;10.134;2023-11-21T03:30:57;7.17;;;4.10;;
39322;SDS011;25036;53.638;10.134;2023-11-21T03:31:57;4.43;;;3.70;;
39322;SDS011;25036;53.638;10.134;2023-11-21T03:32:57;6.33;;;4.13;;
39322;SDS011;25036;53.638;10.134;2023-11-21T03:33:57;4.33;;;3.80;;
39322;SDS011;25036;53.638;10.134;2023-11-21T03:34:57;4.70;;;3.80;;
39322;SDS011;25036;53.638;10.134;2023-11-21T03:35:58;4.47;;;4.07;;
39322;SDS011;25036;53.638;10.134;2023-11-21T03:36:58;4.77;;;4.00;;
39322;SDS011;25036;53.638;10.134;2023-11-21T03:37:58;5.20;;;4.15;;
39322;SDS011;25036;53.638;10.134;2023-11-21T03:38:58;4.87;;;3.63;;
39322;SDS011;25036;53.638;10.134;2023-11-21T03:39:58;6.27;;;3.93;;
39322;SDS011;25036;53.638;10.134;2023-11-21T03:40:59;6.97;;;4.20;;
39322;SDS011;25036;53.638;10.134;2023-11-21T03:41:59;4.82;;;4.15;;
39322;SDS011;25036;53.638;10.134;2023-11-21T03:42:59;4.57;;;3.93;;
39322;SDS011;25036;53.638;10.134;2023-11-21T03:43:59;5.10;;;4.53;;
39322;SDS011;25036;53.638;10.134;2023-11-21T03:45:00;9.55;;;4.45;;
39322;SDS011;25036;53.638;10.134;2023-11-21T03:46:00;6.70;;;4.07;;
39322;SDS011;25036;53.638;10.134;2023-11-21T03:47:00;4.35;;;3.95;;
39322;SDS011;25036;53.638;10.134;2023-11-21T03:48:01;8.57;;;4.30;;
39322;SDS011;25036;53.638;10.134;2023-11-21T03:49:01;4.10;;;3.70;;
39322;SDS011;25036;53.638;10.134;2023-11-21T03:50:01;6.97;;;4.20;;
39322;SDS011;25036;53.638;10.134;2023-11-21T03:51:03;7.22;;;4.30;;
39322;SDS011;25036;53.638;10.134;2023-11-21T03:52:03;4.93;;;4.10;;
39322;SDS011;25036;53.638;10.134;2023-11-21T03:53:04;9.95;;;4.30;;
39322;SDS011;25036;53.638;10.134;2023-11-21T03:54:04;5.82;;;4.22;;
39322;SDS011;25036;53.638;10.134;2023-11-21T03:55:04;8.40;;;4.88;;
39322;SDS011;25036;53.638;10.134;2023-11-21T03:56:04;9.98;;;5.43;;
39322;SDS011;25036;53.638;10.134;2023-11-21T03:57:05;10.75;;;5.25;;
39322;SDS011;25036;53.638;10.134;2023-11-21T03:58:05;10.53;;;6.07;;
39322;SDS011;25036;53.638;10.134;2023-11-21T03:59:05;8.87;;;4.70;;
39322;SDS011;25036;53.638;10.134;2023-11-21T04:00:06;4.63;;;4.00;;
39322;SDS011;25036;53.638;10.134;2023-11-21T04:01:08;5.50;;;4.20;;
39322;SDS011;25036;53.638;10.134;2023-11-21T04:02:08;5.57;;;3.97;;
39322;SDS011;25036;53.638;10.134;2023-11-21T04:03:09;7.00;;;4.53;;
39322;SDS011;25036;53.638;10.134;2023-11-21T04:04:09;4.60;;;4.10;;
39322;SDS011;25036;53.638;10.134;2023-11-21T04:05:09;4.85;;;4.28;;
39322;SDS011;25036;53.638;10.134;2023-11-21T04:06:09;8.43;;;4.63;;
39322;SDS011;25036;53.638;10.134;2023-11-21T04:07:10;6.20;;;4.18;;
39322;SDS011;25036;53.638;10.134;2023-11-21T04:08:11;6.97;;;4.03;;
39322;SDS011;25036;53.638;10.134;2023-11-21T04:09:11;6.10;;;4.30;;
39322;SDS011;25036;53.638;10.134;2023-11-21T04:10:11;4.33;;;3.93;;
39322;SDS011;25036;53.638;10.134;2023-11-21T04:11:13;5.22;;;4.40;;
39322;SDS011;25036;53.638;10.134;2023-11-21T04:12:13;5.13;;;4.30;;
39322;SDS011;25036;53.638;10.134;2023-11-21T04:13:13;4.73;;;4.20;;
39322;SDS011;25036;53.638;10.134;2023-11-21T04:14:13;5.13;;;4.30;;
39322;SDS011;25036;53.638;10.134;2023-11-21T04:15:13;6.53;;;5.47;;
39322;SDS011;25036;53.638;10.134;2023-11-21T04:16:14;4.45;;;3.75;;
39322;SDS011;25036;53.638;10.134;2023-11-21T04:17:17;6.30;;;4.57;;
39322;SDS011;25036;53.638;10.134;2023-11-21T04:18:17;4.28;;;3.80;;
39322;SDS011;25036;53.638;10.134;2023-11-21T04:19:17;6.27;;;4.20;;
39322;SDS011;25036;53.638;10.134;2023-11-21T04:20:17;5.43;;;4.00;;
39322;SDS011;25036;53.638;10.134;2023-11-21T04:21:18;6.25;;;4.47;;
39322;SDS011;25036;53.638;10.134;2023-11-21T04:22:18;6.30;;;4.20;;
39322;SDS011;25036;53.638;10.134;2023-11-21T04:23:18;5.93;;;4.53;;
39322;SDS011;25036;53.638;10.134;2023-11-21T04:24:18;5.10;;;4.20;;
39322;SDS011;25036;53.638;10.134;2023-11-21T04:25:18;5.40;;;4.07;;
39322;SDS011;25036;53.638;10.134;2023-11-21T04:26:18;4.80;;;4.27;;
39322;SDS011;25036;53.638;10.134;2023-11-21T04:27:18;4.17;;;3.77;;
39322;SDS011;25036;53.638;10.134;2023-11-21T04:28:18;4.53;;;4.07;;
39322;SDS011;25036;53.638;10.134;2023-11-21T04:29:19;5.80;;;4.57;;
39322;SDS011;25036;53.638;10.134;2023-11-21T04:30:19;5.33;;;3.77;;
39322;SDS011;25036;53.638;10.134;2023-11-21T04:31:20;4.60;;;4.10;;
39322;SDS011;25036;53.638;10.134;2023-11-21T04:32:21;4.78;;;4.05;;
39322;SDS011;25036;53.638;10.134;2023-11-21T04:33:21;7.00;;;3.87;;
39322;SDS011;25036;53.638;10.134;2023-11-21T04:34:22;6.93;;;4.13;;
39322;SDS011;25036;53.638;10.134;2023-11-21T04:35:22;5.03;;;3.77;;
39322;SDS011;25036;53.638;10.134;2023-11-21T04:36:22;5.32;;;3.90;;
39322;SDS011;25036;53.638;10.134;2023-11-21T04:37:22;7.20;;;4.30;;
39322;SDS011;25036;53.638;10.134;2023-11-21T04:38:23;5.22;;;4.35;;
39322;SDS011;25036;53.638;10.134;2023-11-21T04:39:23;5.80;;;4.20;;
39322;SDS011;25036;53.638;10.134;2023-11-21T04:40:23;5.95;;;4.10;;
39322;SDS011;25036;53.638;10.134;2023-11-21T04:41:24;4.37;;;3.90;;
39322;SDS011;25036;53.638;10.134;2023-11-21T04:42:24;5.60;;;4.20;;
39322;SDS011;25036;53.638;10.134;2023-11-21T04:43:24;4.80;;;4.30;;
39322;SDS011;25036;53.638;10.134;2023-11-21T04:44:24;5.97;;;4.23;;
39322;SDS011;25036;53.638;10.134;2023-11-21T04:45:24;5.77;;;3.47;;
39322;SDS011;25036;53.638;10.134;2023-11-21T04:46:24;5.50;;;4.13;;
39322;SDS011;25036;53.638;10.134;2023-11-21T04:47:24;5.60;;;4.17;;
39322;SDS011;25036;53.638;10.134;2023-11-21T04:48:25;4.82;;;3.83;;
39322;SDS011;25036;53.638;10.134;2023-11-21T04:49:25;4.80;;;4.30;;
39322;SDS011;25036;53.638;10.134;2023-11-21T04:50:25;6.63;;;4.47;;
39322;SDS011;25036;53.638;10.134;2023-11-21T04:51:27;4.72;;;4.28;;
39322;SDS011;25036;53.638;10.134;2023-11-21T04:52:27;5.40;;;4.15;;
39322;SDS011;25036;53.638;10.134;2023-11-21T04:53:27;5.00;;;3.83;;
39322;SDS011;25036;53.638;10.134;2023-11-21T04:54:27;7.03;;;4.30;;
39322;SDS011;25036;53.638;10.134;2023-11-21T04:55:27;4.87;;;4.27;;
39322;SDS011;25036;53.638;10.134;2023-11-21T04:56:28;8.13;;;3.90;;
39322;SDS011;25036;53.638;10.134;2023-11-21T04:57:28;8.77;;;3.97;;
39322;SDS011;25036;53.638;10.134;2023-11-21T04:58:28;4.80;;;4.18;;
39322;SDS011;25036;53.638;10.134;2023-11-21T04:59:28;6.30;;;4.50;;
39322;SDS011;25036;53.638;10.134;2023-11-21T05:00:28;5.97;;;4.30;;
39322;SDS011;25036;53.638;10.134;2023-11-21T05:01:29;4.47;;;3.87;;
39322;SDS011;25036;53.638;10.134;2023-11-21T05:02:29;4.43;;;4.03;;
39322;SDS011;25036;53.638;10.134;2023-11-21T05:03:29;5.23;;;3.77;;
39322;SDS011;25036;53.638;10.134;2023-11-21T05:04:29;5.30;;;3.75;;
39322;SDS011;25036;53.638;10.134;2023-11-21T05:05:30;5.93;;;3.87;;
39322;SDS011;25036;53.638;10.134;2023-11-21T05:06:30;4.72;;;3.72;;
39322;SDS011;25036;53.638;10.134;2023-11-21T05:07:30;8.17;;;4.20;;
39322;SDS011;25036;53.638;10.134;2023-11-21T05:08:30;5.63;;;4.20;;
39322;SDS011;25036;53.638;10.134;2023-11-21T05:09:31;4.43;;;3.92;;
39322;SDS011;25036;53.638;10.134;2023-11-21T05:10:32;5.18;;;4.38;;
39322;SDS011;25036;53.638;10.134;2023-11-21T05:11:32;4.43;;;4.03;;
39322;SDS011;25036;53.638;10.134;2023-11-21T05:12:32;5.28;;;3.83;;
39322;SDS011;25036;53.638;10.134;2023-11-21T05:13:36;4.35;;;3.67;;
39322;SDS011;25036;53.638;10.134;2023-11-21T05:14:37;4.47;;;4.07;;
39322;SDS011;25036;53.638;10.134;2023-11-21T05:15:37;4.10;;;3.70;;
39322;SDS011;25036;53.638;10.134;2023-11-21T05:16:38;6.38;;;4.07;;
39322;SDS011;25036;53.638;10.134;2023-11-21T05:17:39;6.13;;;3.80;;
39322;SDS011;25036;53.638;10.134;2023-11-21T05:18:42;6.63;;;3.88;;
39322;SDS011;25036;53.638;10.134;2023-11-21T05:19:42;6.13;;;3.83;;
39322;SDS011;25036;53.638;10.134;2023-11-21T05:20:45;4.43;;;4.03;;
39322;SDS011;25036;53.638;10.134;2023-11-21T05:21:45;3.90;;;3.55;;
39322;SDS011;25036;53.638;10.134;2023-11-21T05:22:48;5.45;;;3.70;;
39322;SDS011;25036;53.638;10.134;2023-11-21T05:23:49;5.03;;;3.40;;
39322;SDS011;25036;53.638;10.134;2023-11-21T05:24:49;11.60;;;4.23;;
39322;SDS011;25036;53.638;10.134;2023-11-21T05:25:49;4.72;;;4.00;;
39322;SDS011;25036;53.638;10.134;2023-11-21T05:26:49;4.53;;;3.77;;
39322;SDS011;25036;53.638;10.134;2023-11-21T05:27:50;4.20;;;3.80;;
39322;SDS011;25036;53.638;10.134;2023-11-21T05:28:50;4.17;;;3.77;;
39322;SDS011;25036;53.638;10.134;2023-11-21T05:29:50;4.88;;;4.28;;
39322;SDS011;25036;53.638;10.134;2023-11-21T05:30:50;5.18;;;4.25;;
39322;SDS011;25036;53.638;10.134;2023-11-21T05:31:51;4.13;;;3.75;;
39322;SDS011;25036;53.638;10.134;2023-11-21T05:32:51;5.82;;;3.80;;
39322;SDS011;25036;53.638;10.134;2023-11-21T05:33:51;5.00;;;3.83;;
39322;SDS011;25036;53.638;10.134;2023-11-21T05:34:51;5.13;;;3.97;;
39322;SDS011;25036;53.638;10.134;2023-11-21T05:35:51;5.18;;;4.18;;
39322;SDS011;25036;53.638;10.134;2023-11-21T05:36:52;4.78;;;3.63;;
39322;SDS011;25036;53.638;10.134;2023-11-21T05:37:52;4.85;;;4.05;;
39322;SDS011;25036;53.638;10.134;2023-11-21T05:38:52;5.03;;;4.00;;
39322;SDS011;25036;53.638;10.134;2023-11-21T05:39:52;5.03;;;4.40;;
39322;SDS011;25036;53.638;10.134;2023-11-21T05:40:53;6.55;;;4.35;;
39322;SDS011;25036;53.638;10.134;2023-11-21T05:41:54;5.18;;;4.68;;
39322;SDS011;25036;53.638;10.134;2023-11-21T05:42:54;6.50;;;4.38;;
39322;SDS011;25036;53.638;10.134;2023-11-21T05:43:55;4.75;;;4.30;;
39322;SDS011;25036;53.638;10.134;2023-11-21T05:44:56;5.37;;;4.50;;
39322;SDS011;25036;53.638;10.134;2023-11-21T05:45:59;5.32;;;4.47;;
39322;SDS011;25036;53.638;10.134;2023-11-21T05:46:59;4.50;;;4.07;;
39322;SDS011;25036;53.638;10.134;2023-11-21T05:47:59;5.77;;;4.50;;
39322;SDS011;25036;53.638;10.134;2023-11-21T05:48:59;6.53;;;4.63;;
39322;SDS011;25036;53.638;10.134;2023-11-21T05:49:59;5.53;;;4.00;;
39322;SDS011;25036;53.638;10.134;2023-11-21T05:51:00;6.53;;;4.37;;
39322;SDS011;25036;53.638;10.134;2023-11-21T05:52:01;4.32;;;3.92;;
39322;SDS011;25036;53.638;10.134;2023-11-21T05:53:01;4.68;;;4.28;;
39322;SDS011;25036;53.638;10.134;2023-11-21T05:54:02;5.22;;;3.75;;
39322;SDS011;25036;53.638;10.134;2023-11-21T05:55:03;5.30;;;4.65;;
39322;SDS011;25036;53.638;10.134;2023-11-21T05:56:04;4.55;;;3.95;;
39322;SDS011;25036;53.638;10.134;2023-11-21T05:57:05;5.47;;;4.10;;
39322;SDS011;25036;53.638;10.134;2023-11-21T05:58:05;6.27;;;4.80;;
39322;SDS011;25036;53.638;10.134;2023-11-21T05:59:05;5.37;;;4.40;;